Time;durP1;ratioP1;P1;durP2;ratioP2;P2;SDS_P1;SDS_P2;PMS_P1;PMS_P2;Temp;Humidity;BMP_temperature;BMP_pressure;BME280_temperature;BME280_humidity;BME280_pressure;Samples;Min_cycle;Max_cycle;Signal;HPM_P1;HPM_P2
2022/02/11 00:05:06;;;;;;;1.43;1.00;;;17.50;67.70;;;;;;10506974;28;20675;-69
2022/02/11 00:10:30;;;;;;;1.97;1.27;;;17.50;67.70;;;;;;10492349;28;20258;-69
2022/02/11 00:15:54;;;;;;;1.90;1.20;;;17.50;67.70;;;;;;10493017;28;20196;-68
2022/02/11 00:21:16;;;;;;;1.47;1.10;;;17.40;67.60;;;;;;10485144;28;20212;-68
2022/02/11 00:26:43;;;;;;;1.33;1.00;;;17.50;67.60;;;;;;10499716;28;20196;-68
2022/02/11 00:32:13;;;;;;;2.03;1.10;;;17.50;67.60;;;;;;10491865;28;20212;-67
2022/02/11 00:37:39;;;;;;;1.97;1.00;;;17.50;67.90;;;;;;10486181;28;20212;-69
2022/02/11 00:43:56;;;;;;;3.23;1.00;;;17.40;67.40;;;;;;10527448;28;20712;-68
2022/02/11 01:06:03;;;;;;;2.80;0.90;;;17.40;67.40;;;;;;10541384;28;20180;-67
2022/02/11 01:11:30;;;;;;;1.93;0.80;;;17.50;67.40;;;;;;10541012;28;20218;-67
2022/02/11 01:16:57;;;;;;;1.90;0.80;;;17.40;67.30;;;;;;10537046;28;20180;-67
2022/02/11 01:22:30;;;;;;;2.10;1.00;;;17.50;67.50;;;;;;10540007;28;20276;-68
2022/02/11 01:28:00;;;;;;;3.27;1.07;;;17.40;67.30;;;;;;10526884;28;20281;-67
2022/02/11 01:39:28;;;;;;;1.67;1.00;;;17.40;67.40;;;;;;10498557;28;20204;-67
2022/02/11 01:56:31;;;;;;;2.30;0.97;;;17.40;67.30;;;;;;10509159;28;20196;-67
2022/02/11 02:02:40;;;;;;;1.90;0.90;;;17.40;67.20;;;;;;10506598;28;20318;-68
2022/02/11 02:14:10;;;;;;;2.37;1.00;;;17.40;67.20;;;;;;10498084;28;20663;-67
2022/02/11 02:25:15;;;;;;;2.00;0.70;;;17.40;67.10;;;;;;10505287;28;20181;-68
2022/02/11 02:59:04;;;;;;;1.90;0.90;;;17.40;67.10;;;;;;10496523;28;20280;-67
2022/02/11 03:16:22;;;;;;;1.37;0.60;;;17.40;67.00;;;;;;10535335;28;20212;-67
2022/02/11 03:50:31;;;;;;;2.23;0.90;;;17.40;66.70;;;;;;10510716;28;20212;-67
2022/02/11 03:56:42;;;;;;;1.77;0.60;;;17.40;66.70;;;;;;10534640;28;20191;-67
2022/02/11 05:04:26;;;;;;;1.47;0.80;;;17.40;66.30;;;;;;10480753;28;20193;-65
2022/02/11 05:09:48;;;;;;;2.60;0.80;;;17.50;66.30;;;;;;10496236;28;20216;-65
2022/02/11 05:15:15;;;;;;;2.87;1.30;;;17.40;66.30;;;;;;10526357;28;20223;-65
2022/02/11 05:20:37;;;;;;;1.67;0.70;;;17.50;66.40;;;;;;10525244;28;20720;-65
2022/02/11 05:25:59;;;;;;;1.33;0.77;;;17.50;66.50;;;;;;10519194;28;20214;-66
2022/02/11 05:31:23;;;;;;;2.67;0.90;;;17.50;66.40;;;;;;10520858;28;20592;-66
2022/02/11 05:36:45;;;;;;;1.60;0.80;;;17.50;66.40;;;;;;10551355;28;20254;-66
2022/02/11 05:42:08;;;;;;;1.47;0.87;;;17.50;66.50;;;;;;10533213;28;21017;-66
2022/02/11 05:47:31;;;;;;;1.73;0.70;;;17.50;66.40;;;;;;10505153;28;20232;-66
2022/02/11 05:52:53;;;;;;;1.90;0.90;;;17.40;66.30;;;;;;10521108;28;20212;-66
2022/02/11 05:58:15;;;;;;;1.47;0.80;;;17.50;66.40;;;;;;10481455;28;20235;-66
2022/02/11 06:03:39;;;;;;;1.33;0.73;;;17.40;66.30;;;;;;10506931;28;20207;-66
2022/02/11 06:09:02;;;;;;;1.80;0.60;;;17.50;66.40;;;;;;10496908;28;20220;-66
2022/02/11 06:14:24;;;;;;;1.57;0.87;;;17.40;66.30;;;;;;10496082;28;20215;-66
2022/02/11 06:19:48;;;;;;;1.20;0.73;;;17.40;66.30;;;;;;10497199;28;20216;-65
2022/02/11 06:25:11;;;;;;;1.60;1.03;;;17.40;66.40;;;;;;10494496;28;20247;-65
2022/02/11 06:30:33;;;;;;;1.70;0.90;;;17.50;66.30;;;;;;10536835;28;20220;-65
2022/02/11 06:35:57;;;;;;;3.23;1.00;;;17.50;66.40;;;;;;10538087;28;20211;-66
2022/02/11 06:41:19;;;;;;;3.37;1.20;;;17.40;66.40;;;;;;10535039;28;20223;-65
2022/02/11 06:46:41;;;;;;;2.87;1.10;;;17.50;66.30;;;;;;10536089;28;20195;-67
2022/02/11 06:52:05;;;;;;;1.53;0.80;;;17.40;66.20;;;;;;10535295;28;20196;-65
2022/02/11 06:57:28;;;;;;;2.03;0.80;;;17.40;66.30;;;;;;10535634;28;20229;-66
2022/02/11 07:02:50;;;;;;;1.27;0.80;;;17.40;66.30;;;;;;10503205;28;20207;-65
2022/02/11 07:08:14;;;;;;;2.60;0.80;;;17.40;66.30;;;;;;10476298;22;20220;-68
2022/02/11 07:13:36;;;;;;;0.80;0.50;;;17.40;66.20;;;;;;10423172;28;20226;-67
2022/02/11 07:18:58;;;;;;;1.10;0.70;;;17.50;66.20;;;;;;10421004;28;20221;-69
2022/02/11 07:24:21;;;;;;;1.80;0.80;;;17.50;66.30;;;;;;10444479;28;20216;-67
2022/02/11 07:29:43;;;;;;;0.80;0.67;;;17.50;66.60;;;;;;10454122;28;20196;-67
2022/02/11 07:35:06;;;;;;;1.37;0.70;;;17.50;66.30;;;;;;10426551;28;20222;-67
2022/02/11 07:40:31;;;;;;;3.30;0.93;;;17.50;66.30;;;;;;10437764;28;20205;-67
2022/02/11 07:45:53;;;;;;;1.90;0.80;;;17.50;66.30;;;;;;10414278;28;20210;-67
2022/02/11 07:51:15;;;;;;;0.70;0.50;;;17.50;66.20;;;;;;10428677;28;20776;-67
2022/02/11 07:56:39;;;;;;;1.80;0.87;;;17.50;66.10;;;;;;10436733;28;20225;-67
2022/02/11 08:02:01;;;;;;;3.00;0.53;;;17.50;66.20;;;;;;10417593;28;20204;-68
2022/02/11 08:07:23;;;;;;;1.43;0.70;;;17.50;66.40;;;;;;10452338;28;20212;-68
2022/02/11 08:12:46;;;;;;;0.90;0.60;;;17.50;66.30;;;;;;10451897;28;20208;-68
2022/02/11 08:18:09;;;;;;;0.83;0.50;;;17.50;66.20;;;;;;10453474;28;20232;-68
2022/02/11 08:23:31;;;;;;;2.17;0.60;;;17.50;66.20;;;;;;10453027;28;20208;-68
2022/02/11 08:28:54;;;;;;;0.90;0.77;;;17.50;66.30;;;;;;10450716;28;20186;-68
2022/02/11 08:34:16;;;;;;;1.40;0.73;;;17.50;66.20;;;;;;10411096;28;20233;-67
2022/02/11 08:39:39;;;;;;;1.10;0.70;;;17.50;66.20;;;;;;10411012;28;20198;-67
2022/02/11 08:45:02;;;;;;;0.73;0.70;;;17.50;66.30;;;;;;10415293;28;20221;-68
2022/02/11 08:50:24;;;;;;;1.10;0.70;;;17.50;66.40;;;;;;10444046;28;20283;-67
2022/02/11 08:55:47;;;;;;;0.67;0.50;;;17.50;66.50;;;;;;10441629;28;20220;-67
2022/02/11 09:01:10;;;;;;;1.50;0.73;;;17.50;66.50;;;;;;10423859;28;20208;-68
2022/02/11 09:06:32;;;;;;;0.50;0.50;;;17.50;66.50;;;;;;10451969;28;20658;-68
2022/02/11 09:11:55;;;;;;;1.20;0.70;;;17.50;66.60;;;;;;10452386;28;20201;-67
2022/02/11 09:17:18;;;;;;;0.80;0.60;;;17.50;66.60;;;;;;10451715;28;20232;-67
2022/02/11 09:22:40;;;;;;;0.80;0.63;;;17.50;66.60;;;;;;10429862;28;20207;-68
2022/02/11 09:28:02;;;;;;;1.27;0.70;;;17.50;66.60;;;;;;10452856;28;20228;-67
2022/02/11 09:33:26;;;;;;;1.23;0.77;;;17.50;66.60;;;;;;10439812;28;20569;-68
2022/02/11 09:38:48;;;;;;;1.10;0.70;;;17.50;66.70;;;;;;10410443;28;20226;-67
2022/02/11 09:44:10;;;;;;;1.40;0.50;;;17.50;66.70;;;;;;10445806;28;20228;-68
2022/02/11 09:49:33;;;;;;;1.20;0.80;;;17.50;67.50;;;;;;10442498;28;20185;-67
2022/02/11 10:00:34;;;;;;;0.77;0.70;;;17.60;67.60;;;;;;10457818;28;20194;-67
2022/02/11 10:06:01;;;;;;;0.87;0.43;;;17.60;67.50;;;;;;10457817;28;20221;-67
2022/02/11 10:11:23;;;;;;;0.63;0.60;;;17.60;67.50;;;;;;10452657;28;20614;-67
2022/02/11 10:16:56;;;;;;;0.77;0.63;;;17.60;67.40;;;;;;10457962;28;20219;-67
2022/02/11 10:22:22;;;;;;;0.80;0.60;;;17.60;67.40;;;;;;10454932;28;20189;-67
2022/02/11 10:27:44;;;;;;;0.80;0.60;;;17.60;67.40;;;;;;10416610;28;20214;-67
2022/02/11 10:33:06;;;;;;;0.93;0.57;;;17.60;67.30;;;;;;10415089;28;20193;-67
2022/02/11 10:38:30;;;;;;;2.00;0.50;;;17.50;67.10;;;;;;10414837;28;20214;-66
2022/02/11 10:43:59;;;;;;;1.03;0.50;;;17.50;67.20;;;;;;10427671;28;20287;-68
2022/02/11 10:49:31;;;;;;;0.60;0.50;;;17.50;67.40;;;;;;10447682;28;20181;-68
2022/02/11 10:54:56;;;;;;;0.70;0.60;;;17.50;67.30;;;;;;10453808;28;20319;-68
2022/02/11 11:00:20;;;;;;;0.40;0.30;;;17.50;67.50;;;;;;10455051;28;20200;-68
2022/02/11 11:05:44;;;;;;;1.47;0.40;;;17.50;67.50;;;;;;10456269;28;20225;-68
2022/02/11 11:11:09;;;;;;;0.73;0.40;;;17.50;67.50;;;;;;10445868;28;20200;-68
2022/02/11 11:16:35;;;;;;;0.40;0.40;;;17.50;67.50;;;;;;10455198;28;20205;-69
2022/02/11 11:22:14;;;;;;;0.93;0.67;;;17.50;67.50;;;;;;10455732;28;20208;-68
2022/02/11 11:27:42;;;;;;;0.73;0.40;;;17.50;67.50;;;;;;10454732;28;20205;-68
2022/02/11 11:33:23;;;;;;;0.90;0.60;;;17.50;67.50;;;;;;10454591;28;20194;-67
2022/02/11 11:38:59;;;;;;;1.20;0.60;;;17.50;67.40;;;;;;10454517;28;20315;-67
2022/02/11 11:44:24;;;;;;;0.90;0.53;;;17.50;67.50;;;;;;10433588;28;20747;-67
2022/02/11 11:49:51;;;;;;;0.90;0.50;;;17.60;67.50;;;;;;10441000;28;20205;-66
2022/02/11 11:55:18;;;;;;;1.00;0.40;;;17.60;67.40;;;;;;10439774;28;20275;-68
2022/02/11 12:00:42;;;;;;;0.40;0.40;;;17.60;67.40;;;;;;10442221;28;20189;-67
2022/02/11 12:06:19;;;;;;;0.40;0.30;;;17.60;67.30;;;;;;10447744;28;20217;-67
2022/02/11 12:11:41;;;;;;;0.40;0.40;;;17.70;67.00;;;;;;10411230;28;20201;-67
2022/02/11 12:17:07;;;;;;;0.50;0.43;;;17.60;66.90;;;;;;10411026;28;20229;-67
2022/02/11 12:22:31;;;;;;;0.53;0.47;;;17.70;66.80;;;;;;10434720;28;20193;-67
2022/02/11 12:27:57;;;;;;;0.53;0.53;;;17.70;66.70;;;;;;10452642;28;20793;-68
2022/02/11 12:33:22;;;;;;;0.53;0.53;;;17.70;66.60;;;;;;10451571;28;20189;-67
2022/02/11 12:38:56;;;;;;;0.50;0.40;;;17.70;66.40;;;;;;10453252;28;20247;-67
2022/02/11 12:44:26;;;;;;;3.60;0.50;;;17.70;66.50;;;;;;10450637;28;20225;-66
2022/02/11 12:49:51;;;;;;;0.83;0.50;;;17.70;66.60;;;;;;10442633;28;20197;-66
2022/02/11 12:55:16;;;;;;;0.90;0.60;;;17.70;66.80;;;;;;10419476;28;20237;-67
2022/02/11 13:00:39;;;;;;;2.30;0.90;;;17.60;66.80;;;;;;10448757;28;20911;-67
2022/02/11 13:06:04;;;;;;;2.43;1.03;;;18.50;63.60;;;;;;10449307;28;20225;-66
2022/02/11 13:11:27;;;;;;;4.33;0.90;;;18.10;65.40;;;;;;10410144;28;20198;-69
2022/02/11 13:16:49;;;;;;;2.47;1.20;;;17.90;65.60;;;;;;10412584;28;20599;-68
2022/02/11 13:22:12;;;;;;;1.60;0.97;;;17.90;66.30;;;;;;10432287;28;20201;-69
2022/02/11 13:32:41;;;;;;;1.80;1.03;;;17.80;66.30;;;;;;10475429;22;20236;-67
2022/02/11 13:38:05;;;;;;;1.60;1.00;;;17.80;66.40;;;;;;10493539;28;20243;-66
2022/02/11 13:43:29;;;;;;;3.40;1.13;;;17.80;66.30;;;;;;10466302;28;20450;-66
2022/02/11 13:48:52;;;;;;;7.13;1.33;;;18.80;62.60;;;;;;10471441;28;20573;-66
2022/02/11 13:54:17;;;;;;;3.20;1.23;;;18.20;64.70;;;;;;10487967;28;20236;-66
2022/02/11 13:59:39;;;;;;;3.87;1.20;;;18.00;65.60;;;;;;10495947;28;20228;-66
2022/02/11 14:05:02;;;;;;;2.03;1.10;;;17.90;66.70;;;;;;10454140;28;20193;-67
2022/02/11 14:10:25;;;;;;;1.73;1.03;;;17.90;66.20;;;;;;10492345;28;20208;-66
2022/02/11 14:15:47;;;;;;;2.37;0.97;;;17.90;66.20;;;;;;10495755;28;20546;-67
2022/02/11 14:21:12;;;;;;;2.13;0.80;;;17.80;66.10;;;;;;10495997;28;20217;-66
2022/02/11 14:26:36;;;;;;;1.63;0.95;;;17.80;66.10;;;;;;10494205;28;20410;-67
2022/02/11 14:31:58;;;;;;;2.30;0.70;;;18.20;64.90;;;;;;10484340;28;20223;-66
2022/02/11 14:37:21;;;;;;;2.63;0.87;;;18.00;65.50;;;;;;10466573;28;20231;-67
2022/02/11 14:42:44;;;;;;;3.95;1.27;;;17.90;65.80;;;;;;10473542;28;20428;-65
2022/02/11 14:48:06;;;;;;;4.87;1.20;;;18.70;62.50;;;;;;10451187;28;20239;-65
2022/02/11 14:53:29;;;;;;;4.47;1.10;;;18.00;58.30;;;;;;10488971;28;20203;-65
2022/02/11 14:58:52;;;;;;;2.10;0.70;;;17.80;60.90;;;;;;10460193;28;20601;-66
2022/02/11 15:04:15;;;;;;;3.33;0.80;;;17.80;63.40;;;;;;10476467;28;20200;-66
2022/02/11 15:09:37;;;;;;;1.80;0.83;;;17.70;64.00;;;;;;10461762;28;20213;-66
2022/02/11 15:15:01;;;;;;;1.17;0.70;;;17.80;64.30;;;;;;10451004;28;20548;-66
2022/02/11 15:20:23;;;;;;;1.63;0.80;;;17.80;64.50;;;;;;10468409;28;20230;-67
2022/02/11 15:25:45;;;;;;;2.17;0.70;;;17.80;64.50;;;;;;10472828;28;20543;-66
2022/02/11 15:31:11;;;;;;;1.67;0.63;;;17.80;64.60;;;;;;10469954;28;20652;-67
2022/02/11 15:36:34;;;;;;;1.57;0.70;;;17.80;64.60;;;;;;10484123;28;20232;-66
2022/02/11 15:41:56;;;;;;;2.37;0.70;;;17.80;64.60;;;;;;10455933;28;20197;-67
2022/02/11 15:47:19;;;;;;;1.30;0.60;;;17.80;64.70;;;;;;10463655;28;20213;-66
2022/02/11 15:52:42;;;;;;;2.00;0.90;;;17.80;64.80;;;;;;10450787;28;20463;-66
2022/02/11 15:58:04;;;;;;;3.73;0.93;;;17.80;64.80;;;;;;10478646;28;20224;-66
2022/02/11 16:03:28;;;;;;;1.23;0.60;;;17.80;64.70;;;;;;10456955;28;20279;-66
2022/02/11 16:08:50;;;;;;;1.17;0.60;;;17.80;64.70;;;;;;10450760;28;20221;-67
2022/02/11 16:14:16;;;;;;;1.23;0.70;;;17.80;64.70;;;;;;10450547;28;20805;-66
2022/02/11 16:19:39;;;;;;;1.90;0.70;;;17.80;64.60;;;;;;10450238;28;20581;-66
2022/02/11 16:25:01;;;;;;;2.47;0.77;;;17.80;64.60;;;;;;10448932;28;20223;-67
2022/02/11 16:30:25;;;;;;;1.60;0.83;;;17.90;64.70;;;;;;10450234;28;20240;-67
2022/02/11 16:35:49;;;;;;;1.57;0.83;;;17.80;64.60;;;;;;10457250;28;20201;-66
2022/02/11 16:41:12;;;;;;;3.37;1.07;;;17.80;64.60;;;;;;10451454;28;20232;-67
2022/02/11 16:46:35;;;;;;;0.97;0.60;;;17.80;64.70;;;;;;10450925;28;20192;-66
2022/02/11 16:51:59;;;;;;;3.20;1.10;;;17.80;64.60;;;;;;10456140;28;20201;-67
2022/02/11 16:57:21;;;;;;;2.03;0.50;;;17.90;64.70;;;;;;10452383;28;20595;-67
2022/02/11 17:02:44;;;;;;;0.97;0.50;;;17.90;64.70;;;;;;10448892;28;20200;-67
2022/02/11 17:08:07;;;;;;;1.73;0.80;;;17.80;64.60;;;;;;10449466;28;20714;-66
2022/02/11 17:13:29;;;;;;;2.70;1.00;;;17.80;64.60;;;;;;10464891;28;20225;-67
2022/02/11 17:18:51;;;;;;;2.90;0.93;;;17.80;64.60;;;;;;10460692;28;20722;-68
2022/02/11 17:24:15;;;;;;;2.73;1.33;;;17.90;64.70;;;;;;10471427;28;20204;-68
2022/02/11 17:29:37;;;;;;;2.13;1.10;;;17.90;64.70;;;;;;10443892;28;20606;-68
2022/02/11 17:35:02;;;;;;;2.23;1.17;;;17.80;64.80;;;;;;10444585;28;20201;-67
2022/02/11 17:40:26;;;;;;;1.97;1.10;;;17.90;64.70;;;;;;10469848;28;20463;-67
2022/02/11 17:45:48;;;;;;;2.00;0.83;;;17.90;64.70;;;;;;10458314;28;20201;-68
2022/02/11 17:51:10;;;;;;;1.63;0.93;;;17.90;64.70;;;;;;10470839;28;20679;-65
2022/02/11 17:56:34;;;;;;;1.63;1.00;;;17.90;64.70;;;;;;10456306;28;20197;-68
2022/02/11 18:01:56;;;;;;;3.13;1.47;;;17.90;64.70;;;;;;10447924;28;20196;-68
2022/02/11 18:07:18;;;;;;;3.07;1.40;;;17.80;64.60;;;;;;10468903;28;20216;-68
2022/02/11 18:12:42;;;;;;;2.13;1.10;;;17.80;64.60;;;;;;10452717;28;20189;-67
2022/02/11 18:18:04;;;;;;;2.87;1.33;;;17.80;64.60;;;;;;10449630;28;20224;-68
2022/02/11 18:23:27;;;;;;;1.70;0.90;;;17.80;64.60;;;;;;10470360;28;20211;-67
2022/02/11 18:28:52;;;;;;;1.80;1.10;;;17.80;64.70;;;;;;10494270;28;20220;-67
2022/02/11 18:34:15;;;;;;;1.97;1.37;;;17.70;64.80;;;;;;10450080;28;20200;-65
2022/02/11 18:39:37;;;;;;;1.50;0.90;;;17.70;64.80;;;;;;10455476;28;20221;-67
2022/02/11 18:45:00;;;;;;;2.00;1.20;;;17.70;64.60;;;;;;10456738;28;20859;-68
2022/02/11 18:50:23;;;;;;;4.40;1.47;;;17.60;64.80;;;;;;10481123;28;20220;-68
2022/02/11 18:55:45;;;;;;;1.57;1.10;;;17.60;64.80;;;;;;10482812;28;20203;-67
2022/02/11 19:01:08;;;;;;;1.90;1.10;;;17.60;64.80;;;;;;10483411;28;20705;-68
2022/02/11 19:06:31;;;;;;;3.17;1.00;;;17.60;64.90;;;;;;10452513;28;20674;-67
2022/02/11 19:11:53;;;;;;;2.40;1.33;;;17.60;64.70;;;;;;10445607;28;20197;-69
2022/02/11 19:17:16;;;;;;;2.83;1.30;;;17.60;64.60;;;;;;10481436;28;20232;-68
2022/02/11 19:22:40;;;;;;;2.30;1.33;;;17.60;64.50;;;;;;10483163;28;20677;-68
2022/02/11 19:28:02;;;;;;;2.30;1.10;;;17.60;64.70;;;;;;10486423;28;20224;-66
2022/02/11 19:33:26;;;;;;;2.33;1.10;;;17.60;64.80;;;;;;10519045;23;20227;-70
2022/02/11 19:38:48;;;;;;;2.07;1.10;;;17.60;64.50;;;;;;10508860;28;20670;-70
2022/02/11 19:44:10;;;;;;;2.23;1.33;;;17.60;64.40;;;;;;10508098;28;20228;-69
2022/02/11 19:49:33;;;;;;;2.80;1.00;;;17.60;64.50;;;;;;10514248;28;20671;-69
2022/02/11 19:54:56;;;;;;;2.03;1.00;;;17.60;64.50;;;;;;10507052;28;20551;-69
2022/02/11 20:00:20;;;;;;;2.07;1.20;;;17.60;64.60;;;;;;10508411;28;20219;-69
2022/02/11 20:05:43;;;;;;;1.67;1.03;;;17.60;64.50;;;;;;10507805;28;20712;-69
2022/02/11 20:11:05;;;;;;;2.53;1.23;;;17.60;64.60;;;;;;10507602;28;20221;-70
2022/02/11 20:16:27;;;;;;;1.97;1.47;;;17.60;64.60;;;;;;10506320;28;20200;-69
2022/02/11 20:21:51;;;;;;;3.10;1.53;;;17.60;64.50;;;;;;10507795;28;20221;-69
2022/02/11 20:27:13;;;;;;;1.43;1.03;;;17.60;64.40;;;;;;10507805;28;20199;-70
2022/02/11 20:32:35;;;;;;;2.47;1.30;;;17.60;64.20;;;;;;10514643;28;20303;-70
2022/02/11 20:37:59;;;;;;;4.07;2.00;;;17.60;64.30;;;;;;10515549;28;20220;-70
2022/02/11 20:43:21;;;;;;;2.03;1.43;;;17.60;64.30;;;;;;10513220;28;20211;-71
2022/02/11 20:48:43;;;;;;;1.77;1.27;;;17.60;64.20;;;;;;10517482;28;20191;-71
2022/02/11 20:54:07;;;;;;;2.10;1.40;;;17.60;64.40;;;;;;10509270;28;20282;-70
2022/02/11 20:59:30;;;;;;;1.83;1.37;;;17.60;64.30;;;;;;10496926;28;20212;-69
2022/02/11 21:04:52;;;;;;;3.47;1.60;;;17.60;64.20;;;;;;10506293;28;20245;-70
2022/02/11 21:10:16;;;;;;;2.13;1.50;;;17.60;64.20;;;;;;10534560;28;20199;-70
2022/02/11 21:15:38;;;;;;;2.03;1.30;;;17.60;64.20;;;;;;10534166;28;20199;-71
2022/02/11 21:21:00;;;;;;;2.60;1.57;;;17.60;64.30;;;;;;10517638;28;20601;-71
2022/02/11 21:26:24;;;;;;;1.57;1.20;;;17.60;64.10;;;;;;10530679;28;20678;-70
2022/02/11 21:31:46;;;;;;;2.90;1.70;;;17.60;64.20;;;;;;10523307;28;20215;-70
2022/02/11 21:37:09;;;;;;;2.07;1.77;;;17.60;64.20;;;;;;10530427;28;20589;-70
2022/02/11 21:42:32;;;;;;;2.57;1.47;;;17.60;64.00;;;;;;10514953;28;20224;-70
2022/02/11 21:47:54;;;;;;;2.43;1.73;;;17.60;64.00;;;;;;10515682;28;20197;-70
2022/02/11 21:53:17;;;;;;;2.17;1.40;;;17.50;63.80;;;;;;10498765;28;20223;-70
2022/02/11 21:58:40;;;;;;;2.30;1.67;;;17.50;63.80;;;;;;10529959;28;20211;-70
2022/02/11 22:04:02;;;;;;;1.80;1.57;;;17.50;63.70;;;;;;10534443;28;20799;-70
2022/02/11 22:09:25;;;;;;;2.90;1.80;;;17.50;63.70;;;;;;10536323;28;20191;-70
2022/02/11 22:14:48;;;;;;;2.67;1.73;;;17.50;63.70;;;;;;10535605;28;20222;-70
2022/02/11 22:20:11;;;;;;;1.70;1.17;;;17.50;63.70;;;;;;10534155;28;20585;-70
2022/02/11 22:25:33;;;;;;;3.43;1.77;;;17.50;63.60;;;;;;10494942;28;20192;-70
2022/02/11 22:30:59;;;;;;;3.20;1.70;;;17.50;63.60;;;;;;10495032;28;20216;-70
2022/02/11 22:36:21;;;;;;;2.53;1.60;;;17.50;63.60;;;;;;10500387;28;20222;-71
2022/02/11 22:41:43;;;;;;;3.37;1.70;;;17.50;63.60;;;;;;10530021;28;20773;-70
2022/02/11 22:47:07;;;;;;;3.03;1.50;;;17.50;63.50;;;;;;10498263;28;20204;-70
2022/02/11 22:58:10;;;;;;;2.67;1.90;;;17.50;63.60;;;;;;10494136;28;20228;-68
2022/02/11 23:03:34;;;;;;;3.60;1.63;;;17.50;63.60;;;;;;10493415;28;20223;-71
2022/02/11 23:14:36;;;;;;;2.87;1.37;;;17.50;64.10;;;;;;10503106;28;20219;-70
2022/02/11 23:19:59;;;;;;;2.37;1.33;;;17.50;63.50;;;;;;10494615;28;20215;-70
2022/02/11 23:25:21;;;;;;;2.97;1.47;;;17.50;63.40;;;;;;10532078;28;20191;-70
2022/02/11 23:30:43;;;;;;;1.80;1.50;;;17.50;63.30;;;;;;10510539;28;20568;-70
2022/02/11 23:36:07;;;;;;;1.70;1.23;;;17.50;63.30;;;;;;10505158;28;20207;-70
2022/02/11 23:41:30;;;;;;;2.10;1.27;;;17.50;63.30;;;;;;10495859;28;20221;-70
2022/02/11 23:46:52;;;;;;;1.67;1.30;;;17.50;63.30;;;;;;10517992;28;20191;-70
2022/02/11 23:52:16;;;;;;;2.17;1.60;;;17.50;63.20;;;;;;10500968;28;20212;-70
2022/02/11 23:57:38;;;;;;;2.57;1.47;;;17.50;63.30;;;;;;10503058;28;20187;-69
